Terminal Aerodrome Forecast
Issued by NWS

Home | Current Version | Previous Version | Graphics & Text | Print | Product List | Glossary Off
Versions: 1 2 3 4 5 6 7 8 9 10 11 12 13 14

000
FTUS43 KIWX 240529
TAFSBN
TAF
KSBN 240529Z 2406/2506 16008KT P6SM SCT060
     FM240900 17010KT 5SM BR OVC040
     FM241400 19012G20KT P6SM BKN020
      TEMPO 2414/2418 3SM SHRA BR OVC010
     FM241800 19012G20KT P6SM BKN035
     FM250000 20010KT P6SM BKN050=

USA.gov is the U.S. government's official web portal to all federal, state and local government web resources and services.